Time;durP1;ratioP1;P1;durP2;ratioP2;P2;SDS_P1;SDS_P2;PMS_P1;PMS_P2;Temp;Humidity;BMP_temperature;BMP_pressure;BME280_temperature;BME280_humidity;BME280_pressure;Samples;Min_cycle;Max_cycle;Signal;HPM_P1;HPM_P2
2023/10/13 00:02:07;;;;;;;16.83;11.27;;;18.70;1.00;;;;;;4970821;28;20191;-80
2023/10/13 00:04:35;;;;;;;15.40;11.03;;;18.70;1.00;;;;;;4975916;28;20209;-80
2023/10/13 00:07:02;;;;;;;16.83;10.47;;;18.70;1.00;;;;;;4975687;28;20447;-81
2023/10/13 00:09:37;;;;;;;17.10;11.20;;;18.60;1.00;;;;;;4976517;28;20531;-79
2023/10/13 00:12:05;;;;;;;12.27;10.30;;;18.70;1.00;;;;;;4973558;28;20439;-78
2023/10/13 00:14:33;;;;;;;13.33;11.20;;;18.70;1.00;;;;;;4973278;28;20464;-79
2023/10/13 00:17:04;;;;;;;17.60;12.00;;;18.60;1.00;;;;;;4973018;28;20451;-78
2023/10/13 00:19:37;;;;;;;17.47;12.17;;;18.60;1.00;;;;;;4970416;28;20467;-80
2023/10/13 00:22:10;;;;;;;17.17;12.57;;;18.60;1.00;;;;;;4971977;28;20440;-78
2023/10/13 00:24:42;;;;;;;15.10;10.93;;;18.60;1.00;;;;;;4968042;28;20467;-79
2023/10/13 00:27:24;;;;;;;13.60;10.80;;;18.60;1.00;;;;;;4972842;28;20524;-80
2023/10/13 00:29:50;;;;;;;11.80;10.20;;;18.60;1.00;;;;;;4971575;28;20444;-79
2023/10/13 00:32:20;;;;;;;14.53;11.57;;;18.60;1.00;;;;;;4970531;28;21173;-80
2023/10/13 00:34:45;;;;;;;17.23;10.70;;;18.60;1.00;;;;;;4971884;28;20583;-79
2023/10/13 00:37:27;;;;;;;15.67;10.27;;;18.60;1.00;;;;;;4972436;28;20475;-80
2023/10/13 00:39:56;;;;;;;16.00;10.53;;;18.70;1.00;;;;;;4972185;28;20698;-80
2023/10/13 00:42:30;;;;;;;19.93;11.50;;;18.70;1.00;;;;;;4972642;28;20436;-79
2023/10/13 00:44:56;;;;;;;23.10;11.97;;;18.70;1.00;;;;;;4964784;28;20460;-79
2023/10/13 00:47:39;;;;;;;15.20;10.70;;;18.70;1.00;;;;;;4969761;28;20506;-80
2023/10/13 00:50:05;;;;;;;16.70;11.37;;;18.70;1.00;;;;;;4974702;28;20189;-80
2023/10/13 00:52:34;;;;;;;15.57;10.80;;;18.70;1.00;;;;;;4976013;28;20467;-80
2023/10/13 00:55:01;;;;;;;16.20;10.50;;;18.70;1.00;;;;;;4976654;28;20514;-78
2023/10/13 00:57:28;;;;;;;16.17;11.20;;;18.70;1.00;;;;;;4968562;28;20555;-80
2023/10/13 00:59:55;;;;;;;16.70;12.30;;;18.70;1.00;;;;;;4977033;28;20464;-79
2023/10/13 01:05:02;;;;;;;19.23;11.07;;;18.80;1.00;;;;;;4975221;28;20491;-79
2023/10/13 01:07:28;;;;;;;17.40;11.60;;;18.80;1.00;;;;;;4976598;28;20443;-81
2023/10/13 01:09:54;;;;;;;15.10;10.80;;;18.80;1.00;;;;;;4975428;28;20439;-79
2023/10/13 01:12:20;;;;;;;20.33;12.80;;;18.80;1.00;;;;;;4976404;28;20227;-78
2023/10/13 01:14:46;;;;;;;16.20;10.87;;;18.80;1.00;;;;;;4976100;28;20466;-79
2023/10/13 01:17:11;;;;;;;18.83;11.97;;;18.80;1.00;;;;;;4976786;28;20180;-80
2023/10/13 01:19:45;;;;;;;17.23;12.07;;;18.80;1.00;;;;;;4976587;28;20586;-79
2023/10/13 01:22:11;;;;;;;17.57;12.37;;;18.80;1.00;;;;;;4974142;28;20223;-81
2023/10/13 01:24:37;;;;;;;17.03;11.87;;;18.80;1.00;;;;;;4974352;28;20471;-79
2023/10/13 01:27:19;;;;;;;15.30;11.37;;;18.80;1.00;;;;;;4975683;28;20489;-79
2023/10/13 01:29:58;;;;;;;17.33;11.50;;;18.80;1.00;;;;;;4975617;28;20200;-81
2023/10/13 01:32:24;;;;;;;13.17;11.27;;;18.80;1.00;;;;;;4977487;28;21101;-80
2023/10/13 01:34:54;;;;;;;19.13;11.90;;;18.80;1.00;;;;;;4978833;28;20463;-80
2023/10/13 01:37:20;;;;;;;14.83;10.53;;;18.80;1.00;;;;;;4971974;28;20199;-80
2023/10/13 01:39:47;;;;;;;18.00;12.10;;;18.90;1.00;;;;;;4976808;28;20533;-81
2023/10/13 01:42:19;;;;;;;17.13;12.67;;;18.90;1.00;;;;;;4979546;28;20585;-80
2023/10/13 01:44:45;;;;;;;15.83;12.50;;;18.90;1.00;;;;;;4979037;28;20463;-80
2023/10/13 01:47:12;;;;;;;19.33;12.60;;;18.90;1.00;;;;;;4978825;28;20510;-81
2023/10/13 01:49:42;;;;;;;18.27;12.10;;;18.90;1.00;;;;;;4972749;28;20643;-81
2023/10/13 01:52:11;;;;;;;18.83;13.20;;;18.90;1.00;;;;;;4979740;28;20458;-80
2023/10/13 01:54:40;;;;;;;17.93;13.13;;;18.90;1.00;;;;;;4977697;28;20840;-80
2023/10/13 01:57:06;;;;;;;20.87;14.90;;;18.90;1.00;;;;;;4976595;28;20436;-81
2023/10/13 01:59:32;;;;;;;33.20;17.57;;;18.90;1.00;;;;;;4977801;28;20582;-79
2023/10/13 02:02:00;;;;;;;22.47;17.17;;;18.90;1.00;;;;;;4976854;28;20432;-79
2023/10/13 02:04:27;;;;;;;21.13;15.60;;;18.90;1.00;;;;;;4976860;28;20209;-81
2023/10/13 02:06:52;;;;;;;26.00;15.30;;;18.80;1.00;;;;;;4979173;28;20782;-79
2023/10/13 02:09:25;;;;;;;22.03;14.97;;;18.80;1.00;;;;;;4977913;28;20564;-81
2023/10/13 02:11:55;;;;;;;24.83;15.67;;;18.80;1.00;;;;;;4977084;28;20871;-80
2023/10/13 02:14:25;;;;;;;20.23;16.13;;;18.80;2.40;;;;;;4975495;28;20506;-80
2023/10/13 02:16:55;;;;;;;26.03;16.90;;;18.70;7.90;;;;;;4979596;28;20436;-80
2023/10/13 02:19:21;;;;;;;24.30;16.00;;;18.70;12.90;;;;;;4976417;28;21076;-80
2023/10/13 02:21:58;;;;;;;26.13;17.50;;;18.70;17.30;;;;;;4978727;28;20467;-80
2023/10/13 02:24:29;;;;;;;23.50;17.83;;;18.70;19.00;;;;;;4978029;28;21027;-81
2023/10/13 02:27:00;;;;;;;30.10;17.80;;;18.70;21.40;;;;;;4978535;28;20440;-80
2023/10/13 02:29:27;;;;;;;26.73;19.73;;;18.70;25.80;;;;;;4973995;28;20475;-81
2023/10/13 02:31:57;;;;;;;23.77;17.07;;;18.70;26.70;;;;;;4978584;28;20443;-81
2023/10/13 02:34:23;;;;;;;29.67;18.57;;;18.70;28.10;;;;;;4978578;28;20215;-81
2023/10/13 02:36:49;;;;;;;22.57;16.80;;;18.70;29.80;;;;;;4978322;28;20428;-81
2023/10/13 02:39:24;;;;;;;22.57;17.10;;;18.70;31.00;;;;;;4978438;28;20785;-81
2023/10/13 02:41:50;;;;;;;22.33;16.33;;;18.70;31.80;;;;;;4972395;28;20440;-81
2023/10/13 02:44:26;;;;;;;27.03;16.20;;;18.70;32.10;;;;;;4976669;28;20462;-81
2023/10/13 02:46:55;;;;;;;25.90;16.57;;;18.70;32.30;;;;;;4978441;28;20443;-80
2023/10/13 02:49:20;;;;;;;31.43;16.13;;;18.70;32.40;;;;;;4977149;28;20799;-80
2023/10/13 02:51:46;;;;;;;20.07;15.57;;;18.60;32.70;;;;;;4970620;28;20540;-80
2023/10/13 02:54:18;;;;;;;23.03;15.30;;;18.60;33.20;;;;;;4973122;28;20215;-81
2023/10/13 02:56:56;;;;;;;19.93;15.47;;;18.60;32.30;;;;;;4979924;28;20899;-78
2023/10/13 02:59:34;;;;;;;25.57;15.40;;;18.60;32.00;;;;;;4969220;28;20463;-80
2023/10/13 03:02:00;;;;;;;23.33;15.37;;;18.60;31.90;;;;;;4975768;28;20432;-80
2023/10/13 03:04:27;;;;;;;24.73;16.03;;;18.60;31.80;;;;;;4973865;28;20464;-80
2023/10/13 03:06:52;;;;;;;21.80;14.40;;;18.60;31.70;;;;;;4975347;28;20440;-80
2023/10/13 03:09:18;;;;;;;24.30;16.20;;;18.60;31.60;;;;;;4964838;28;20437;-79
2023/10/13 03:11:48;;;;;;;21.50;14.87;;;18.60;31.80;;;;;;4972644;28;20193;-79
2023/10/13 03:14:24;;;;;;;25.43;15.10;;;18.60;31.80;;;;;;4973219;28;20375;-79
2023/10/13 03:16:52;;;;;;;25.50;14.30;;;18.60;31.80;;;;;;4972857;28;20439;-80
2023/10/13 03:19:19;;;;;;;26.40;14.40;;;18.60;31.30;;;;;;4970959;28;20475;-79
2023/10/13 03:21:54;;;;;;;18.47;13.27;;;18.60;30.90;;;;;;4964704;28;20444;-78
2023/10/13 03:24:22;;;;;;;18.40;13.67;;;18.60;30.10;;;;;;4975688;28;20483;-79
2023/10/13 03:26:52;;;;;;;24.40;13.50;;;18.60;29.20;;;;;;4968604;28;20805;-79
2023/10/13 03:29:21;;;;;;;20.80;13.73;;;18.60;28.40;;;;;;4973701;28;20432;-80
2023/10/13 03:31:55;;;;;;;18.47;12.20;;;18.60;28.60;;;;;;4974640;28;20440;-79
2023/10/13 03:34:20;;;;;;;17.60;11.43;;;18.70;28.20;;;;;;4973507;28;20517;-79
2023/10/13 03:36:57;;;;;;;23.47;12.80;;;18.70;27.70;;;;;;4967654;28;20526;-80
2023/10/13 03:39:30;;;;;;;16.70;11.53;;;18.70;27.00;;;;;;4972308;28;20200;-80
2023/10/13 03:41:58;;;;;;;17.73;12.47;;;18.70;25.90;;;;;;4973596;28;21020;-79
2023/10/13 03:44:23;;;;;;;20.47;12.23;;;18.70;25.20;;;;;;4973196;28;20451;-79
2023/10/13 03:46:49;;;;;;;14.10;11.13;;;18.70;24.10;;;;;;4968347;28;20438;-79
2023/10/13 03:49:20;;;;;;;15.60;10.73;;;18.70;23.30;;;;;;4973231;28;20271;-79
2023/10/13 03:51:47;;;;;;;16.93;11.07;;;18.70;22.90;;;;;;4974058;28;20479;-80
2023/10/13 03:54:16;;;;;;;18.33;10.90;;;18.70;23.50;;;;;;4968417;28;20448;-79
2023/10/13 03:56:44;;;;;;;15.73;10.77;;;18.70;22.90;;;;;;4972112;28;20439;-80
2023/10/13 03:59:17;;;;;;;14.83;11.00;;;18.70;22.60;;;;;;4972671;28;20463;-80
2023/10/13 04:01:46;;;;;;;14.60;10.13;;;18.70;23.00;;;;;;4970493;28;20435;-79
2023/10/13 04:04:14;;;;;;;17.07;10.40;;;18.70;23.30;;;;;;4973100;28;20494;-79
2023/10/13 04:17:33;;;;;;;20.03;12.00;;;18.70;44.80;;;;;;4974899;28;20450;-79
2023/10/13 04:28:15;;;;;;;15.77;10.43;;;18.60;64.30;;;;;;4969031;28;20412;-79
2023/10/13 04:30:59;;;;;;;18.90;11.30;;;18.60;66.80;;;;;;4973720;28;20466;-79
2023/10/13 04:33:52;;;;;;;18.20;11.37;;;18.60;70.00;;;;;;4976158;28;20470;-79
2023/10/13 04:41:41;;;;;;;24.10;11.90;;;18.60;78.20;;;;;;4975249;28;20451;-79
2023/10/13 04:44:48;;;;;;;22.83;11.47;;;18.60;79.40;;;;;;4974051;28;20439;-78
2023/10/13 04:47:17;;;;;;;18.23;11.80;;;18.60;80.50;;;;;;4972889;28;20446;-79
2023/10/13 04:54:49;;;;;;;22.13;11.83;;;18.60;84.40;;;;;;4975875;28;20444;-79
2023/10/13 05:51:32;;;;;;;20.53;10.27;;;18.80;89.20;;;;;;4976513;28;20531;-78
2023/10/13 06:29:33;;;;;;;20.13;10.40;;;19.10;55.70;;;;;;4974103;28;20454;-80
2023/10/13 06:32:01;;;;;;;17.20;8.83;;;19.00;52.80;;;;;;4971666;28;21097;-79
2023/10/13 06:34:37;;;;;;;20.67;9.50;;;19.10;54.10;;;;;;4975710;28;20451;-79
2023/10/13 06:37:22;;;;;;;19.77;10.70;;;19.10;53.00;;;;;;4975670;28;20960;-79
2023/10/13 06:39:51;;;;;;;19.93;10.53;;;19.10;52.20;;;;;;4973029;28;20467;-79
2023/10/13 06:42:18;;;;;;;18.33;10.93;;;19.10;51.60;;;;;;4969389;28;20467;-79
2023/10/13 06:44:47;;;;;;;15.60;9.37;;;19.20;50.10;;;;;;4974107;28;20452;-79
2023/10/13 06:47:13;;;;;;;23.53;10.50;;;19.20;48.80;;;;;;4973823;28;22495;-80
2023/10/13 06:49:43;;;;;;;21.30;10.10;;;19.30;46.40;;;;;;4971673;28;20511;-79
2023/10/13 06:52:10;;;;;;;23.27;10.60;;;19.30;44.50;;;;;;4974849;28;20187;-80
2023/10/13 06:54:38;;;;;;;17.07;9.33;;;19.40;39.00;;;;;;4975023;28;20474;-79
2023/10/13 06:57:06;;;;;;;19.80;9.50;;;19.50;33.30;;;;;;4969484;28;20782;-79
2023/10/13 06:59:34;;;;;;;22.73;9.00;;;19.50;28.10;;;;;;4973360;28;20472;-80
2023/10/13 07:02:09;;;;;;;20.27;9.40;;;19.50;25.50;;;;;;4974291;28;20478;-79
2023/10/13 07:04:39;;;;;;;17.40;8.30;;;19.60;22.00;;;;;;4974003;28;20451;-80
2023/10/13 07:07:10;;;;;;;13.60;9.20;;;19.60;20.00;;;;;;4972579;28;20443;-81
2023/10/13 07:12:26;;;;;;;26.07;9.77;;;19.60;9.60;;;;;;4976534;28;20450;-80
2023/10/13 07:14:52;;;;;;;24.70;9.70;;;19.60;6.50;;;;;;4976261;28;20895;-80
2023/10/13 07:17:24;;;;;;;19.63;8.43;;;19.70;4.60;;;;;;4968869;28;20447;-80
2023/10/13 07:19:53;;;;;;;17.77;8.43;;;19.70;1.00;;;;;;4976753;28;20466;-80
2023/10/13 07:22:20;;;;;;;20.37;9.33;;;19.80;1.00;;;;;;4977756;28;20440;-80
2023/10/13 07:24:50;;;;;;;14.33;9.03;;;19.90;1.00;;;;;;4970685;28;20501;-80
2023/10/13 07:27:35;;;;;;;15.67;8.57;;;20.00;1.00;;;;;;4970754;28;20446;-80
2023/10/13 07:30:14;;;;;;;20.17;7.73;;;20.30;1.00;;;;;;4974798;28;20454;-80
2023/10/13 07:32:45;;;;;;;15.27;8.23;;;20.60;1.00;;;;;;4975118;28;20443;-80
2023/10/13 07:35:20;;;;;;;16.07;7.97;;;20.90;1.00;;;;;;4977009;28;20466;-80
2023/10/13 07:37:48;;;;;;;14.50;7.30;;;21.10;1.00;;;;;;4976524;28;20447;-79
2023/10/13 07:43:09;;;;;;;26.47;7.33;;;21.40;1.00;;;;;;4971688;28;20440;-80
2023/10/13 07:45:40;;;;;;;20.50;7.30;;;21.60;1.00;;;;;;4975826;28;20801;-80
2023/10/13 07:48:20;;;;;;;15.13;7.03;;;21.80;99.90;;;;;;4976354;28;20436;-80
2023/10/13 07:51:03;;;;;;;17.33;6.73;;;22.10;99.90;;;;;;4975382;28;20435;-81
2023/10/13 07:53:34;;;;;;;17.27;6.00;;;22.30;1.00;;;;;;4976524;28;20456;-80
2023/10/13 07:56:04;;;;;;;15.53;5.63;;;22.50;1.00;;;;;;4973919;28;20447;-80
2023/10/13 07:58:31;;;;;;;16.47;5.90;;;22.80;1.20;;;;;;4972250;28;20448;-80
2023/10/13 08:01:06;;;;;;;16.77;6.77;;;23.20;1.00;;;;;;4975613;28;20468;-80
2023/10/13 08:03:45;;;;;;;16.50;6.27;;;24.70;21.00;;;;;;4973442;28;20946;-79
2023/10/13 08:06:21;;;;;;;7.63;4.63;;;24.80;99.90;;;;;;4972762;28;20498;-81
2023/10/13 08:08:50;;;;;;;20.30;5.97;;;25.90;23.90;;;;;;4976641;28;20498;-80
2023/10/13 08:13:58;;;;;;;19.50;4.40;;;29.10;1.00;;;;;;4977561;28;20451;-81
2023/10/13 08:16:30;;;;;;;12.33;4.00;;;30.40;99.90;;;;;;4970951;28;20463;-81
2023/10/13 08:18:55;;;;;;;14.20;4.77;;;31.00;99.90;;;;;;4972585;28;20475;-81
2023/10/13 08:21:24;;;;;;;9.83;4.30;;;31.50;99.90;;;;;;4977778;28;20480;-80
2023/10/13 08:26:29;;;;;;;9.83;4.83;;;31.70;99.90;;;;;;4974159;28;20964;-81
2023/10/13 08:28:56;;;;;;;12.77;4.47;;;32.30;99.90;;;;;;4979250;28;20791;-81
2023/10/13 08:31:22;;;;;;;12.77;5.20;;;33.40;99.90;;;;;;4983486;28;20621;-81
2023/10/13 08:33:48;;;;;;;6.57;4.43;;;34.10;99.90;;;;;;4984590;28;20456;-81
2023/10/13 08:36:30;;;;;;;10.43;4.23;;;34.60;99.90;;;;;;4984050;28;20191;-81
2023/10/13 08:38:56;;;;;;;8.53;4.23;;;34.90;99.90;;;;;;4975095;28;20999;-81
2023/10/13 08:43:53;;;;;;;8.60;4.97;;;36.00;99.90;;;;;;4971018;28;20212;-81
2023/10/13 08:46:28;;;;;;;11.00;4.63;;;35.80;99.90;;;;;;4974163;28;20498;-81
2023/10/13 08:51:44;;;;;;;8.63;5.33;;;34.80;99.90;;;;;;4974409;28;20467;-81
2023/10/13 08:54:19;;;;;;;11.17;4.17;;;35.50;99.90;;;;;;4973215;28;20956;-81
2023/10/13 08:56:57;;;;;;;13.70;5.10;;;36.50;99.90;;;;;;4973653;28;20428;-81
2023/10/13 08:59:33;;;;;;;13.73;5.00;;;35.70;99.90;;;;;;4965359;28;20477;-81
2023/10/13 09:02:15;;;;;;;10.03;4.27;;;35.60;99.90;;;;;;4974074;28;20936;-80
2023/10/13 09:04:44;;;;;;;14.03;5.10;;;35.40;99.90;;;;;;4973669;28;20888;-81
2023/10/13 09:07:15;;;;;;;10.10;5.30;;;35.60;99.90;;;;;;4973685;28;20424;-81
2023/10/13 09:15:06;;;;;;;12.10;5.60;;;35.50;99.90;;;;;;4973895;28;20463;-81
2023/10/13 09:17:41;;;;;;;11.90;4.93;;;36.00;99.90;;;;;;4977155;28;20447;-80
2023/10/13 09:20:24;;;;;;;10.90;5.47;;;35.40;99.90;;;;;;4975322;28;20510;-81
2023/10/13 09:25:35;;;;;;;10.47;5.50;;;35.50;99.90;;;;;;4967076;28;20467;-81
2023/10/13 09:28:14;;;;;;;14.83;5.60;;;35.10;99.90;;;;;;4974689;28;20454;-81
2023/10/13 09:30:47;;;;;;;13.60;5.83;;;34.50;99.90;;;;;;4975068;28;20525;-81
2023/10/13 09:33:15;;;;;;;11.80;6.00;;;34.70;99.90;;;;;;4973160;28;20478;-82
2023/10/13 09:35:49;;;;;;;10.60;5.70;;;35.30;99.90;;;;;;4976549;28;20431;-82
2023/10/13 09:38:18;;;;;;;7.80;4.90;;;36.30;99.90;;;;;;4975043;28;20416;-81
2023/10/13 09:40:50;;;;;;;8.57;5.53;;;36.00;99.90;;;;;;4976251;28;20471;-81
2023/10/13 09:43:20;;;;;;;12.10;5.63;;;35.30;99.90;;;;;;4975350;28;22765;-81
2023/10/13 09:46:15;;;;;;;12.83;5.90;;;35.70;99.90;;;;;;4976150;28;20435;-81
2023/10/13 09:48:46;;;;;;;11.13;6.87;;;34.30;99.90;;;;;;4972142;28;20431;-81
2023/10/13 09:51:14;;;;;;;8.67;6.30;;;32.90;99.90;;;;;;4973823;28;20432;-81
2023/10/13 09:53:45;;;;;;;15.03;6.70;;;32.00;99.90;;;;;;4978235;28;20436;-81
2023/10/13 09:56:42;;;;;;;12.07;6.60;;;31.30;99.90;;;;;;4982109;28;20430;-81
2023/10/13 09:59:18;;;;;;;11.07;6.03;;;30.90;99.90;;;;;;4981096;28;20522;-81
2023/10/13 10:01:50;;;;;;;8.70;6.90;;;30.80;99.90;;;;;;4982897;28;20442;-81
2023/10/13 10:04:23;;;;;;;9.77;7.17;;;30.60;99.90;;;;;;4982973;28;20451;-82
2023/10/13 10:06:56;;;;;;;14.80;6.33;;;30.60;99.90;;;;;;4979753;28;20427;-81
2023/10/13 10:09:43;;;;;;;13.07;6.97;;;30.30;99.90;;;;;;4980422;28;20786;-81
2023/10/13 10:12:28;;;;;;;11.10;7.20;;;30.20;99.90;;;;;;4978128;28;20466;-81
2023/10/13 10:15:13;;;;;;;8.93;6.77;;;30.20;99.90;;;;;;4979368;28;20453;-81
2023/10/13 10:17:43;;;;;;;6.73;5.90;;;30.70;99.90;;;;;;4973745;28;20485;-81
2023/10/13 10:20:19;;;;;;;10.73;5.70;;;32.50;99.90;;;;;;4979271;28;20574;-82
2023/10/13 10:22:58;;;;;;;10.87;7.30;;;32.90;99.90;;;;;;4986608;28;20533;-81
2023/10/13 10:25:35;;;;;;;12.80;6.53;;;32.30;99.90;;;;;;4978453;28;20947;-83
2023/10/13 10:28:07;;;;;;;12.17;6.53;;;32.00;99.90;;;;;;4979589;28;20437;-81
2023/10/13 10:30:38;;;;;;;12.30;6.60;;;31.70;99.90;;;;;;4978093;28;20438;-82
2023/10/13 10:33:11;;;;;;;12.70;7.13;;;31.70;99.90;;;;;;4978171;28;20758;-81
2023/10/13 10:35:42;;;;;;;10.43;6.97;;;32.30;99.90;;;;;;4973440;28;20516;-81
2023/10/13 10:38:11;;;;;;;11.90;6.30;;;33.50;99.90;;;;;;4978048;28;20449;-81
2023/10/13 10:40:57;;;;;;;8.33;6.37;;;34.10;99.90;;;;;;4976041;28;21024;-81
2023/10/13 10:43:43;;;;;;;10.73;6.13;;;33.40;99.90;;;;;;4979709;28;20433;-81
2023/10/13 10:46:11;;;;;;;11.60;5.60;;;33.40;99.90;;;;;;4973840;28;20948;-81
2023/10/13 10:48:43;;;;;;;12.30;5.90;;;33.70;99.90;;;;;;4977131;28;20532;-82
2023/10/13 10:53:45;;;;;;;12.50;6.37;;;31.80;99.90;;;;;;4981940;28;20437;-81
2023/10/13 10:56:24;;;;;;;13.37;6.47;;;31.20;99.90;;;;;;4977706;28;20428;-81
2023/10/13 10:58:55;;;;;;;27.70;8.40;;;30.70;99.90;;;;;;4974806;28;20508;-81
2023/10/13 11:01:33;;;;;;;17.27;6.60;;;30.20;99.90;;;;;;4978997;28;20440;-81
2023/10/13 11:04:23;;;;;;;22.13;7.63;;;29.90;99.90;;;;;;4977885;28;20451;-81
2023/10/13 11:06:57;;;;;;;14.80;6.20;;;29.60;99.90;;;;;;4979415;28;20515;-81
2023/10/13 11:09:36;;;;;;;13.07;7.37;;;29.40;99.90;;;;;;4979633;28;20423;-81
2023/10/13 11:12:27;;;;;;;11.73;6.17;;;29.20;99.90;;;;;;4973085;28;20490;-82
2023/10/13 11:15:22;;;;;;;9.73;5.50;;;29.20;99.90;;;;;;4974203;28;20473;-82
2023/10/13 11:17:54;;;;;;;9.20;6.40;;;29.30;99.90;;;;;;4971923;28;20550;-82
2023/10/13 11:20:25;;;;;;;16.30;6.80;;;29.40;99.90;;;;;;4979168;28;20474;-82
2023/10/13 11:22:52;;;;;;;11.77;6.00;;;29.90;99.90;;;;;;4983486;28;20440;-82
2023/10/13 11:25:34;;;;;;;10.93;5.63;;;30.20;99.90;;;;;;4986176;28;20458;-82
2023/10/13 11:28:17;;;;;;;17.93;5.77;;;30.20;99.90;;;;;;4981390;28;20417;-81
2023/10/13 11:30:49;;;;;;;15.10;6.03;;;29.90;99.90;;;;;;4967125;28;20471;-81
2023/10/13 11:33:19;;;;;;;11.87;6.23;;;29.80;99.90;;;;;;4973213;28;20439;-81
2023/10/13 11:38:27;;;;;;;11.67;5.77;;;29.10;99.90;;;;;;4977436;28;20512;-81
2023/10/13 11:49:17;;;;;;;10.67;5.77;;;28.00;99.90;;;;;;4974714;28;20440;-80
2023/10/13 11:51:48;;;;;;;15.70;6.50;;;27.80;99.90;;;;;;4967750;28;20810;-80
2023/10/13 11:54:23;;;;;;;21.90;5.87;;;27.60;99.90;;;;;;4973104;28;20439;-80
2023/10/13 11:56:49;;;;;;;14.03;5.17;;;27.50;99.90;;;;;;4974415;28;20423;-79
2023/10/13 11:59:18;;;;;;;14.77;6.00;;;27.30;99.90;;;;;;4974242;28;20510;-80
2023/10/13 12:04:33;;;;;;;15.00;6.17;;;27.00;99.90;;;;;;4971569;28;20432;-79
2023/10/13 12:07:14;;;;;;;15.03;5.97;;;26.90;99.90;;;;;;4974393;28;20443;-80
2023/10/13 12:09:48;;;;;;;29.03;6.33;;;26.90;99.90;;;;;;4965666;28;20427;-80
2023/10/13 12:12:13;;;;;;;18.27;7.23;;;26.80;99.90;;;;;;4972143;28;20428;-80
2023/10/13 12:14:52;;;;;;;22.70;6.83;;;26.90;99.90;;;;;;4974346;28;20490;-80
2023/10/13 12:17:31;;;;;;;16.70;6.30;;;26.80;99.90;;;;;;4974865;28;20267;-80
2023/10/13 12:19:59;;;;;;;18.43;5.90;;;26.80;99.90;;;;;;4971829;28;21029;-80
2023/10/13 12:22:28;;;;;;;28.87;6.63;;;26.80;99.90;;;;;;4970896;28;20436;-79
2023/10/13 12:24:57;;;;;;;15.13;5.77;;;26.80;99.90;;;;;;4972735;28;20495;-80
2023/10/13 12:27:35;;;;;;;22.53;6.43;;;26.80;99.90;;;;;;4970713;28;20432;-80
2023/10/13 12:30:07;;;;;;;14.23;5.57;;;26.80;99.90;;;;;;4970828;28;20534;-79
2023/10/13 12:32:34;;;;;;;18.33;6.00;;;26.70;99.90;;;;;;4971373;28;20486;-80
2023/10/13 12:35:27;;;;;;;17.17;6.13;;;26.80;99.90;;;;;;4969591;28;20463;-80
2023/10/13 12:48:59;;;;;;;26.20;6.23;;;26.80;99.90;;;;;;4981744;28;20439;-81
2023/10/13 12:56:45;;;;;;;17.47;6.83;;;26.90;99.90;;;;;;4983157;28;20532;-80
2023/10/13 12:59:14;;;;;;;16.57;6.73;;;27.10;99.90;;;;;;4979067;28;20467;-80
2023/10/13 13:01:43;;;;;;;21.27;6.60;;;27.10;99.90;;;;;;4980675;28;20181;-80
2023/10/13 13:04:19;;;;;;;18.37;5.73;;;27.20;99.90;;;;;;4981025;28;20444;-80
2023/10/13 13:06:46;;;;;;;16.50;6.30;;;27.20;99.90;;;;;;4981278;28;20412;-80
2023/10/13 13:09:11;;;;;;;17.50;6.50;;;27.10;99.90;;;;;;4980314;28;20420;-81
2023/10/13 13:11:39;;;;;;;17.90;6.97;;;27.10;99.90;;;;;;4977743;28;20473;-80
2023/10/13 13:14:07;;;;;;;18.03;6.13;;;27.00;99.90;;;;;;4980095;28;20619;-80
2023/10/13 13:16:34;;;;;;;19.20;6.23;;;26.90;99.90;;;;;;4980103;28;20424;-81
2023/10/13 13:19:03;;;;;;;16.10;5.50;;;26.80;99.90;;;;;;4981265;28;20977;-80
2023/10/13 13:21:29;;;;;;;17.07;6.30;;;26.60;99.90;;;;;;4980169;28;20463;-80
2023/10/13 13:23:58;;;;;;;19.00;6.53;;;26.50;99.90;;;;;;4980278;28;20452;-80
2023/10/13 13:26:24;;;;;;;15.30;5.60;;;26.20;99.90;;;;;;4991074;28;20184;-80
2023/10/13 13:28:50;;;;;;;15.20;5.60;;;26.10;99.90;;;;;;4980407;28;20850;-80
2023/10/13 13:31:26;;;;;;;17.40;5.60;;;26.10;99.90;;;;;;4980973;28;20188;-80
2023/10/13 13:33:52;;;;;;;13.97;6.43;;;26.00;99.90;;;;;;4977138;28;20444;-80
2023/10/13 13:36:19;;;;;;;17.20;6.20;;;25.90;99.90;;;;;;4980343;28;20864;-81
2023/10/13 13:38:46;;;;;;;19.40;6.50;;;25.90;99.90;;;;;;4973591;28;20419;-80
2023/10/13 13:41:16;;;;;;;18.83;6.90;;;25.90;99.90;;;;;;4980924;28;20451;-80
2023/10/13 13:46:24;;;;;;;19.43;6.33;;;26.00;99.90;;;;;;4976090;28;20447;-81
2023/10/13 13:48:51;;;;;;;13.20;6.00;;;26.10;99.90;;;;;;4981753;28;20502;-81
2023/10/13 13:51:26;;;;;;;21.47;6.00;;;26.00;99.90;;;;;;4979826;28;20420;-80
2023/10/13 13:53:52;;;;;;;15.77;5.50;;;25.90;99.90;;;;;;4974494;28;20428;-81
2023/10/13 13:56:25;;;;;;;11.33;6.60;;;25.80;99.90;;;;;;4979150;28;20512;-81
2023/10/13 13:58:50;;;;;;;17.03;5.50;;;25.70;99.90;;;;;;4973486;28;20416;-81
2023/10/13 14:01:21;;;;;;;16.90;6.13;;;25.70;99.90;;;;;;4976786;28;20436;-80
2023/10/13 14:03:50;;;;;;;22.60;6.90;;;25.60;99.90;;;;;;4971760;28;20250;-82
2023/10/13 14:06:21;;;;;;;19.97;5.87;;;25.50;99.90;;;;;;4970338;28;20899;-81
2023/10/13 14:08:51;;;;;;;18.53;6.20;;;25.40;99.90;;;;;;4979033;28;20436;-81
2023/10/13 14:12:25;;;;;;;29.70;6.80;;;25.30;99.90;;;;;;4979507;28;20440;-81
2023/10/13 14:14:13;;;;;;;18.50;6.47;;;25.30;99.90;;;;;;4978924;28;20463;-81
2023/10/13 14:16:44;;;;;;;16.30;6.50;;;25.20;99.90;;;;;;4980058;28;20432;-79
2023/10/13 14:19:11;;;;;;;21.80;5.90;;;25.10;99.90;;;;;;4976494;28;20526;-79
2023/10/13 14:21:36;;;;;;;13.47;6.73;;;25.00;99.90;;;;;;4978438;28;20443;-80
2023/10/13 14:24:03;;;;;;;15.33;7.03;;;24.90;99.90;;;;;;4975249;28;20912;-80
2023/10/13 14:26:28;;;;;;;15.77;6.37;;;24.90;99.90;;;;;;4977286;28;20562;-80
2023/10/13 14:29:01;;;;;;;13.00;5.27;;;24.80;99.90;;;;;;4975337;28;20428;-80
2023/10/13 14:31:28;;;;;;;17.50;5.80;;;24.70;99.90;;;;;;4973453;28;20185;-80
2023/10/13 14:33:53;;;;;;;19.13;6.33;;;24.70;99.90;;;;;;4975124;28;20460;-80
2023/10/13 14:36:21;;;;;;;12.77;5.67;;;24.60;99.90;;;;;;4971971;28;21109;-80
2023/10/13 14:38:50;;;;;;;19.67;5.90;;;24.60;99.90;;;;;;4974066;28;20188;-79
2023/10/13 14:41:17;;;;;;;11.17;5.57;;;24.50;99.90;;;;;;4978934;28;20436;-82
2023/10/13 14:43:49;;;;;;;12.27;5.43;;;24.50;99.90;;;;;;4977513;28;20462;-80
2023/10/13 14:46:25;;;;;;;16.27;5.67;;;24.40;99.90;;;;;;4975467;28;20438;-80
2023/10/13 14:48:54;;;;;;;10.40;4.90;;;24.30;99.90;;;;;;4978791;28;20478;-80
2023/10/13 14:51:21;;;;;;;15.43;5.63;;;24.30;99.90;;;;;;4976221;28;20440;-80
2023/10/13 14:53:47;;;;;;;15.87;5.73;;;24.30;99.90;;;;;;4972161;28;20492;-81
2023/10/13 14:56:17;;;;;;;14.83;5.37;;;24.20;99.90;;;;;;4974490;28;20918;-80
2023/10/13 14:58:44;;;;;;;15.53;5.70;;;24.10;99.90;;;;;;4975303;28;20432;-80
2023/10/13 15:01:20;;;;;;;14.67;5.90;;;24.10;99.90;;;;;;4975535;28;20490;-80
2023/10/13 15:03:54;;;;;;;13.90;5.67;;;24.00;99.90;;;;;;4975508;28;20459;-80
2023/10/13 15:06:25;;;;;;;13.57;5.03;;;24.00;99.90;;;;;;4975709;28;20435;-81
2023/10/13 15:08:53;;;;;;;18.90;5.80;;;24.00;99.90;;;;;;4974339;28;20432;-80
2023/10/13 15:11:19;;;;;;;13.13;6.10;;;24.00;99.90;;;;;;4971316;28;20572;-78
2023/10/13 15:13:45;;;;;;;17.70;6.77;;;23.90;99.90;;;;;;4975209;28;20993;-81
2023/10/13 15:16:21;;;;;;;11.17;6.17;;;23.90;99.90;;;;;;4974697;28;20177;-80
2023/10/13 15:18:47;;;;;;;15.30;6.50;;;23.90;99.90;;;;;;4975512;28;20240;-80
2023/10/13 15:21:37;;;;;;;13.33;6.03;;;23.80;99.90;;;;;;4988641;28;20449;-80
2023/10/13 15:24:04;;;;;;;12.17;5.90;;;23.80;99.90;;;;;;4976915;28;20476;-80
2023/10/13 15:26:30;;;;;;;10.80;6.03;;;23.80;99.90;;;;;;4976922;28;20519;-79
2023/10/13 15:28:57;;;;;;;16.67;5.77;;;23.80;99.90;;;;;;4974357;28;20471;-80
2023/10/13 15:31:37;;;;;;;16.93;6.00;;;23.80;99.90;;;;;;4976577;28;20196;-79
2023/10/13 15:34:06;;;;;;;15.67;6.80;;;23.70;99.90;;;;;;4973846;28;20475;-79
2023/10/13 15:36:33;;;;;;;13.10;6.20;;;23.70;99.90;;;;;;4974376;28;20506;-79
2023/10/13 15:38:58;;;;;;;9.53;5.60;;;23.70;99.90;;;;;;4970774;28;20476;-80
2023/10/13 15:41:25;;;;;;;11.10;6.60;;;23.70;99.90;;;;;;4975245;28;20462;-79
2023/10/13 15:43:52;;;;;;;16.47;5.70;;;23.60;99.90;;;;;;4972266;28;20216;-79
2023/10/13 15:46:20;;;;;;;10.27;5.50;;;23.60;99.90;;;;;;4975260;28;20447;-80
2023/10/13 15:48:46;;;;;;;12.73;5.20;;;23.50;99.90;;;;;;4975244;28;20448;-80
2023/10/13 15:51:12;;;;;;;14.47;5.60;;;23.50;99.90;;;;;;4975686;28;20450;-80
2023/10/13 15:53:38;;;;;;;14.80;4.90;;;23.50;99.90;;;;;;4975716;28;20953;-80
2023/10/13 15:56:11;;;;;;;10.83;4.80;;;23.50;99.90;;;;;;4972185;28;20260;-80
2023/10/13 15:58:50;;;;;;;12.93;6.60;;;23.50;99.90;;;;;;4975646;28;20539;-81